Chute-aux-Outardes, Canada
Current Conditions -  °F | °C
As of 11:00 AM on Wednesday 26 Nov 2014 (Local Time) from CYBC Reporting Station
Clear Clear  
Wind Chill: 20°   Ceiling: Unl
Heat Index: 28°   Visibility: 9mi
Dew Point: 14°   Wind: 8mph
Humidity: 55%   Direction: 310°NW
Pressure: 30.21"   Gusts: NA
Location:  49.13°N, 68.39°W
Report Text: CYBC 261600Z AUTO 31007KT 270V340 9SM CLR M02/M10 A3021 RMK PRESFR SLP230
Loading
Personal Weather Stations






























Interactive Weather Map New forecast layout! Learn more

10-Day Weather Forecast

Advertisements
Track Severe Weather on mobile